Wolf Lake, Indiana
Current Conditions -  °F | °C
As of 6:15 AM on Friday 28 Nov 2014 (Local Time) from KASW Reporting Station
Overcast Overcast  
Wind Chill: 21°   Ceiling: 10000
Heat Index: 21°   Visibility: 10mi
Dew Point: 16°   Wind: 3mph
Humidity: 80%   Direction: 230°SW
Pressure: 30.35"   Gusts: NA
Location:  41.3346°N, 85.4973°W
Report Text: KASW 281115Z AUTO 23003KT 10SM OVC100 M06/M09 A3035 RMK AO2
Loading
Personal Weather Stations






























Interactive Weather Map New forecast layout! Learn more

10-Day Weather Forecast

Advertisements
Track Severe Weather on mobile